Latest Weather Observations for Yulara

IDD60801

Issued at 6:05 pm CST Saturday 1 November 2014 (issued every 30 minutes, with the page automatically refreshed every 10 minutes)

About weather observations | Map of weather stations | Latest weather observations for NT | Other Formats
Station Details ID: 015635 Name: YULARA AIRPORT Lat: -25.19 Lon: 130.97 Height: 492.0 m
Data from the previous 72 hours. | See also: Recent months at Yulara
Date/Time
CST
Temp
°C
App
Temp
°C
Dew
Point
Rel
Hum
%
Delta-T
°C
Wind Press
QNH
hPa
Press
MSL
hPa
Rain
since 9 am
mm
Dir
 
Spd
km/h
Gust
km/h
Spd
kts
Gust
kts
01/06:00pm 29.7 25.0 10.8 31 11.0 ESE 26 37 14 20 1013.5 1010.3 0.0
01/05:30pm 30.5 27.0 11.0 30 11.5 ESE 20 30 11 16 1013.1 1009.9 0.0
01/05:00pm 30.6 26.8 11.1 30 11.5 ESE 22 33 12 18 1013.3 1010.1 0.0
01/04:30pm 30.3 27.3 10.8 30 11.4 ESE 17 32 9 17 1013.7 1010.6 0.0
01/04:00pm 30.9 27.5 11.3 30 11.6 ESE 20 28 11 15 1013.8 1010.7 0.0
01/03:30pm 30.1 26.5 10.6 30 11.4 E 20 26 11 14 1014.2 1011.1 0.0
01/03:00pm 30.3 26.9 11.3 31 11.2 ESE 20 32 11 17 1014.4 1011.3 0.0
01/02:30pm 29.6 26.4 11.2 32 10.8 E 19 30 10 16 1014.9 1011.7 0.0
01/02:00pm 28.7 25.4 10.8 33 10.4 E 19 30 10 16 1015.3 1012.1 0.0
01/01:30pm 27.9 23.6 10.6 34 10.0 E 24 37 13 20 1015.7 1012.6 0.0
01/01:00pm 28.2 24.1 11.3 35 9.9 ESE 24 37 13 20 1016.0 1012.9 0.0
01/12:30pm 27.7 23.7 11.7 37 9.4 E 24 35 13 19 1016.3 1013.2 0.0
01/12:00pm 26.1 22.5 11.8 41 8.3 SE 22 35 12 19 1017.0 1013.8 0.0
01/11:30am 25.9 22.9 12.7 44 7.8 E 20 35 11 19 1017.2 1014.0 0.0
01/11:00am 24.8 21.6 13.0 47 7.0 SE 22 33 12 18 1017.3 1014.1 0.0
01/10:30am 23.5 20.1 12.5 50 6.4 ESE 22 33 12 18 1017.7 1014.6 0.0
01/10:00am 22.5 19.4 12.2 52 6.0 SE 20 32 11 17 1018.0 1014.9 0.0
01/09:30am 21.3 17.7 11.9 55 5.4 SSE 22 32 12 17 1018.0 1014.9 0.0
01/09:00am 20.4 16.7 11.6 57 5.0 SSE 22 32 12 17 1018.3 1015.8 0.2
01/08:30am 19.6 15.5 11.4 59 4.6 SSE 24 35 13 19 1017.8 1015.3 0.2
01/08:00am 19.4 14.9 11.4 60 4.5 S 26 35 14 19 1017.1 1014.6 0.2
01/07:30am 18.2 12.5 11.3 64 3.8 SSE 32 43 17 23 1016.5 1014.0 0.2
01/07:00am 17.5 13.7 11.3 67 3.4 SSE 22 33 12 18 1016.4 1013.9 0.2
01/06:30am 17.3 15.1 12.0 71 3.0 S 15 22 8 12 1016.3 1013.8 0.2
01/06:00am 17.4 14.4 11.9 70 3.1 SE 19 26 10 14 1015.9 1013.4 0.2
01/05:30am 17.9 15.0 12.4 70 3.1 SSE 19 28 10 15 1015.5 1013.0 0.2
01/05:00am 18.8 17.1 13.6 72 3.0 SE 15 19 8 10 1014.5 1012.0 0.2
01/04:30am 19.1 17.2 15.2 78 2.3 S 19 24 10 13 1013.6 1011.1 0.2
01/04:00am 19.8 18.0 16.1 79 2.3 S 20 28 11 15 1012.9 1010.3 0.2
01/03:30am 20.5 17.8 16.5 78 2.5 S 26 41 14 22 1011.9 1009.4 0.2
01/03:00am 21.5 18.9 16.0 71 3.4 SSW 24 35 13 19 1011.7 1009.2 0.2
01/02:30am 21.9 19.6 15.7 68 3.8 S 22 30 12 16 1010.9 1008.3 0.2
01/02:00am 21.3 19.8 16.7 75 2.9 S 20 30 11 16 1010.7 1008.1 0.2
01/01:30am 21.5 20.5 16.5 73 3.1 S 17 24 9 13 1011.1 1008.5 0.2
01/01:00am 21.9 22.3 16.2 70 3.5 S 9 13 5 7 1011.8 1009.3 0.2
01/12:30am 22.2 21.4 16.0 68 3.8 SSW 15 19 8 10 1012.6 1010.0 0.2
01/12:00am 22.9 20.0 16.2 66 4.2 SSW 26 44 14 24 1012.6 1010.0 0.2
 
Date/Time
CST
Temp
°C
App
Temp
°C
Dew
Point
Rel
Hum
%
Delta-T
°C
Wind Press
QNH
hPa
Press
MSL
hPa
Rain
since 9 am
mm
Dir
 
Spd
km/h
Gust
km/h
Spd
kts
Gust
kts
31/11:52pm 23.8 19.7 15.0 57 5.4 SSW 30 44 16 24 1012.7 1010.1 0.2
31/11:30pm 25.1 24.3 13.0 47 7.2 WNW 9 9 5 5 1011.2 1008.6 0.2
31/11:00pm 26.0 25.2 12.8 44 7.8 WNW 9 15 5 8 1011.7 1009.2 0.2
31/10:30pm 26.4 23.2 13.2 44 7.9 W 22 32 12 17 1012.9 1010.3 0.2
31/10:00pm 23.2 21.6 16.0 64 4.5 SW 19 22 10 12 1012.5 1009.9 0.2
31/09:30pm 22.8 23.5 15.6 64 4.4 NNW 6 15 3 8 1011.2 1008.6 0.2
31/09:00pm 22.5 21.2 15.8 66 4.1 S 17 24 9 13 1010.9 1008.3 0.2
31/08:30pm 20.6 16.5 16.4 77 2.6 SW 33 46 18 25 1012.2 1009.7 0.2
31/08:14pm 22.1 16.8 15.2 65 4.2 SW 37 59 20 32 1012.1 1009.6 0.2
31/08:01pm 26.2 15.6 10.8 38 8.9 SW 57 76 31 41 1012.0 1009.5 0.2
31/08:00pm 26.8 15.9 10.9 37 9.2 WSW 59 76 32 41 1012.0 1009.5 0.2
31/07:59pm 27.4 15.9 10.2 34 9.8 WSW 61 76 33 41 1011.8 1009.3 0.2
31/07:58pm 28.1 21.1 9.9 32 10.4 WSW 37 72 20 39 1011.7 1009.2 0.2
31/07:57pm 29.5 23.6 9.1 28 11.6 WSW 30 54 16 29 1011.5 1009.0 0.2
31/07:55pm 29.4 26.2 8.5 27 11.7 NW 15 22 8 12 1009.8 1007.3 0.2
31/07:30pm 30.0 26.4 8.4 26 12.2 N 17 20 9 11 1007.6 1005.0 0.2
31/07:00pm 30.9 26.2 9.2 26 12.4 N 24 32 13 17 1007.8 1005.3 0.2
31/06:30pm 33.8 29.3 7.0 19 15.1 N 20 32 11 17 1007.4 1004.8 0.2
31/06:00pm 34.3 28.0 5.8 17 15.8 N 28 39 15 21 1007.3 1004.7 0.2
31/05:30pm 34.6 30.1 6.8 18 15.6 N 20 30 11 16 1007.5 1004.9 0.2
31/05:00pm 34.7 29.2 6.1 17 15.9 NNW 24 33 13 18 1007.8 1005.3 0.2
31/04:30pm 35.1 29.3 6.4 17 16.1 NW 26 35 14 19 1008.2 1005.6 0.2
31/04:00pm 36.2 31.8 6.4 16 16.7 WNW 19 35 10 19 1008.4 1005.8 0.2
31/03:30pm 34.9 29.7 7.1 18 15.7 NW 24 33 13 18 1008.8 1006.2 0.2
31/03:00pm 35.2 29.8 8.1 19 15.6 NW 26 35 14 19 1009.5 1006.9 0.2
31/02:30pm 34.4 29.6 8.9 21 14.8 NW 24 33 13 18 1009.8 1007.3 0.2
31/02:00pm 34.5 28.6 9.0 21 14.8 NNW 30 37 16 20 1009.8 1007.3 0.2
31/01:30pm 34.2 27.2 10.1 23 14.2 NW 37 50 20 27 1009.9 1007.4 0.2
31/01:06pm 33.3 26.0 8.7 22 14.1 NNW 37 56 20 30 1010.1 1007.6 0.2
31/01:00pm 33.2 26.8 9.3 23 13.8 NNW 33 46 18 25 1010.1 1007.6 0.2
31/12:38pm 31.8 24.8 9.9 26 12.7 N 37 59 20 32 1009.7 1007.2 0.2
31/12:30pm 31.3 25.0 11.1 29 12.0 N 35 52 19 28 1009.8 1007.3 0.2
31/12:23pm 30.3 24.1 11.3 31 11.2 N 35 52 19 28 1009.9 1007.4 0.2
31/12:00pm 29.2 24.8 11.7 34 10.4 NW 26 37 14 20 1012.1 1009.6 0.2
31/11:30am 28.5 23.3 11.6 35 10.0 NNW 30 39 16 21 1012.5 1009.9 0.2
31/11:00am 29.2 24.4 11.7 34 10.3 NW 28 37 15 20 1013.4 1010.9 0.2
31/10:30am 28.9 24.9 11.9 35 10.1 NNW 24 33 13 18 1013.8 1011.3 0.2
31/10:00am 27.9 24.9 11.9 37 9.4 N 19 24 10 13 1013.4 1010.9 0.2
31/09:30am 26.4 25.5 12.5 42 8.2 N 9 15 5 8 1013.1 1010.5 0.0
31/09:00am 25.5 22.3 12.0 43 7.9 NE 20 26 11 14 1012.2 1009.7 0.0
31/08:30am 24.9 25.8 12.8 47 7.2 CALM 0 4 0 2 1013.3 1010.8 0.0
31/08:00am 23.4 20.5 13.0 52 6.1 NNE 20 28 11 15 1013.1 1010.5 0.0
31/07:30am 23.3 18.2 13.2 53 6.0 NNE 32 43 17 23 1012.1 1009.6 0.0
31/07:00am 22.2 19.3 14.1 60 4.8 NE 22 32 12 17 1012.3 1009.8 0.0
31/06:30am 21.9 20.4 14.3 62 4.5 E 15 19 8 10 1012.9 1010.3 0.0
31/06:00am 21.2 19.7 15.3 69 3.6 E 17 22 9 12 1013.0 1010.4 0.0
31/05:30am 20.9 19.4 15.2 70 3.4 SSE 17 22 9 12 1014.1 1011.6 0.0
31/05:10am 22.1 18.3 14.7 63 4.5 SSW 28 44 15 24 1014.9 1012.3 0.0
31/05:00am 22.1 22.1 14.2 61 4.7 N 7 15 4 8 1013.5 1011.0 0.0
31/04:30am 21.8 20.4 14.4 63 4.4 NNE 15 20 8 11 1012.2 1009.7 0.0
31/04:00am 21.5 19.4 14.6 65 4.1 NNE 19 22 10 12 1011.6 1009.1 0.0
31/03:30am 21.7 19.4 14.6 64 4.3 ENE 20 28 11 15 1010.9 1008.3 0.0
31/03:00am 21.9 19.7 14.5 63 4.4 E 19 26 10 14 1011.1 1008.5 0.0
31/02:30am 22.4 20.2 14.3 60 4.9 SE 19 26 10 14 1011.8 1009.3 0.0
31/02:00am 22.6 18.7 14.4 60 4.9 SSE 28 39 15 21 1012.1 1009.6 0.0
31/01:30am 22.8 19.5 14.9 61 4.8 SSE 26 37 14 20 1012.1 1009.6 0.0
31/01:00am 21.8 18.3 15.6 68 3.8 S 28 37 15 20 1013.1 1010.5 0.0
31/12:30am 22.9 19.2 15.0 61 4.8 S 28 43 15 23 1013.5 1011.0 0.0
31/12:00am 22.1 15.4 14.7 63 4.5 S 43 61 23 33 1012.6 1010.0 0.0
 
Date/Time
CST
Temp
°C
App
Temp
°C
Dew
Point
Rel
Hum
%
Delta-T
°C
Wind Press
QNH
hPa
Press
MSL
hPa
Rain
since 9 am
mm
Dir
 
Spd
km/h
Gust
km/h
Spd
kts
Gust
kts
30/11:49pm 25.7 19.5 11.5 41 8.2 SSW 35 56 19 30 1013.1 1010.5 0.0
30/11:41pm 26.1 19.0 8.1 32 9.9 SSW 35 48 19 26 1012.9 1010.3 0.0
30/11:30pm 24.4 19.8 5.7 30 9.8 SSW 19 20 10 11 1011.3 1008.7 0.0
30/11:00pm 23.9 22.5 5.3 30 9.6 E 2 7 1 4 1011.1 1008.5 0.0
30/10:30pm 25.6 23.3 5.8 28 10.4 E 7 11 4 6 1011.7 1009.2 0.0
30/10:00pm 25.1 22.9 6.3 30 9.9 SE 7 11 4 6 1011.7 1009.2 0.0
30/09:30pm 25.0 22.8 6.2 30 9.9 SE 7 9 4 5 1011.4 1008.9 0.0
30/09:00pm 25.7 23.1 6.3 29 10.3 NE 9 11 5 6 1011.2 1008.6 0.0
30/08:30pm 25.3 24.2 5.0 27 10.5 CALM 0 0 0 0 1011.5 1009.0 0.0
30/08:00pm 27.2 26.3 6.0 26 11.3 CALM 0 6 0 3 1011.4 1008.9 0.0
30/07:30pm 28.9 26.7 6.3 24 12.2 NNE 7 9 4 5 1011.4 1008.9 0.0
30/07:00pm 30.6 27.6 5.8 21 13.4 NNE 11 13 6 7 1011.2 1008.6 0.0
30/06:30pm 31.7 28.5 5.3 19 14.3 N 11 15 6 8 1011.2 1008.6 0.0
30/06:00pm 31.8 27.9 5.3 19 14.3 NNE 15 22 8 12 1011.2 1008.6 0.0
30/05:30pm 32.3 27.6 3.3 16 15.2 N 17 28 9 15 1011.4 1008.9 0.0
30/05:00pm 33.0 27.5 3.9 16 15.5 N 22 30 12 16 1011.7 1009.2 0.0
30/04:30pm 32.3 27.2 4.2 17 15.0 NNE 20 32 11 17 1011.7 1009.2 0.0
30/04:00pm 33.2 27.9 3.1 15 15.8 NNE 20 28 11 15 1011.7 1009.2 0.0
30/03:30pm 32.3 26.6 5.0 18 14.7 NE 24 33 13 18 1011.8 1009.3 0.0
30/03:00pm 32.2 27.1 7.8 22 13.8 E 24 32 13 17 1012.2 1009.7 0.0
30/02:30pm 31.9 27.1 7.5 22 13.7 E 22 30 12 16 1013.0 1010.4 0.0
30/02:00pm 31.9 26.9 8.2 23 13.4 E 24 33 13 18 1013.4 1010.9 0.0
30/01:30pm 32.5 27.6 6.7 20 14.3 E 22 33 12 18 1014.1 1011.6 0.0
30/01:00pm 29.4 26.2 8.5 27 11.7 E 15 26 8 14 1014.5 1012.0 0.0
30/12:30pm 26.9 22.7 11.0 37 9.2 E 24 33 13 18 1014.1 1011.6 0.0
30/12:19pm 27.1 24.0 12.3 39 8.8 E 20 30 11 16 1015.0 1012.4 0.0
30/12:00pm 27.6 24.1 10.3 34 9.9 S 19 28 10 15 1017.0 1014.5 0.0
30/11:30am 28.8 24.1 7.9 27 11.6 S 22 32 12 17 1016.1 1013.6 0.0
30/11:00am 28.3 22.9 8.1 28 11.2 S 26 35 14 19 1016.2 1013.7 0.0
30/10:30am 28.1 22.4 8.4 29 11.0 S 28 39 15 21 1016.8 1014.2 0.0
30/10:00am 28.7 22.6 6.7 25 12.0 S 28 37 15 20 1017.0 1014.5 0.0
30/09:30am 29.4 23.7 6.7 24 12.4 S 26 37 14 20 1017.0 1014.5 0.0
30/09:00am 29.4 23.5 4.1 20 13.2 SSE 24 35 13 19 1016.6 1014.1 0.0
30/08:30am 29.6 24.4 3.5 19 13.5 SE 20 28 11 15 1016.1 1013.6 0.0
30/08:00am 28.2 23.9 3.1 20 12.8 SE 15 22 8 12 1015.9 1013.4 0.0
30/07:30am 27.2 24.0 3.0 21 12.2 ESE 9 11 5 6 1015.9 1013.4 0.0
30/07:00am 26.9 23.6 2.7 21 12.1 ESE 9 11 5 6 1015.6 1013.1 0.0
30/06:30am 26.8 23.5 2.7 21 12.1 SE 9 11 5 6 1015.3 1012.8 0.0
30/06:00am 26.6 22.2 2.5 21 12.0 S 15 19 8 10 1014.9 1012.3 0.0
30/05:30am 26.8 22.2 1.3 19 12.5 S 15 19 8 10 1015.0 1012.4 0.0
30/05:00am 27.2 22.9 0.8 18 12.8 S 13 15 7 8 1015.0 1012.4 0.0
30/04:30am 28.0 23.9 2.2 19 12.9 SE 13 17 7 9 1013.6 1011.1 0.0
30/04:00am 28.2 23.5 3.1 20 12.8 ESE 17 22 9 12 1013.2 1010.7 0.0
30/03:30am 27.9 23.2 2.9 20 12.7 E 17 22 9 12 1012.7 1010.1 0.0
30/03:00am 27.5 23.6 3.2 21 12.4 SE 13 19 7 10 1014.1 1011.6 0.0
30/02:30am 27.1 23.9 2.9 21 12.2 S 9 13 5 7 1015.2 1012.7 0.0
30/02:00am 28.2 24.4 3.8 21 12.6 SE 13 17 7 9 1015.4 1012.9 0.0
30/01:30am 28.4 25.0 4.0 21 12.6 SSE 11 19 6 10 1015.4 1012.9 0.0
30/01:00am 28.1 23.5 3.7 21 12.6 SSW 17 20 9 11 1015.1 1012.6 0.0
30/12:30am 27.4 23.7 2.5 20 12.5 SSW 11 15 6 8 1015.3 1012.8 0.0
30/12:00am 27.7 23.6 2.0 19 12.8 SSW 13 19 7 10 1015.1 1012.6 0.0
 
Date/Time
CST
Temp
°C
App
Temp
°C
Dew
Point
Rel
Hum
%
Delta-T
°C
Wind Press
QNH
hPa
Press
MSL
hPa
Rain
since 9 am
mm
Dir
 
Spd
km/h
Gust
km/h
Spd
kts
Gust
kts
29/11:30pm 27.6 22.9 1.2 18 13.0 SSW 15 19 8 10 1015.2 1012.7 0.0
29/11:00pm 29.0 24.8 1.5 17 13.7 S 13 17 7 9 1015.2 1012.7 0.0
29/10:30pm 31.2 25.6 1.5 15 15.0 SSE 20 30 11 16 1015.1 1012.6 0.0
29/10:00pm 30.0 25.6 0.6 15 14.5 S 13 17 7 9 1015.1 1012.6 0.0
29/09:30pm 30.5 26.0 0.0 14 15.0 SSE 13 17 7 9 1015.0 1012.4 0.0
29/09:00pm 29.3 25.6 0.0 15 14.2 S 9 11 5 6 1014.8 1012.2 0.0
29/08:30pm 30.6 26.5 0.1 14 15.0 S 11 13 6 7 1014.5 1012.0 0.0
29/08:00pm 31.3 27.5 -0.4 13 15.5 SSE 9 13 5 7 1014.3 1011.8 0.0
29/07:30pm 33.4 28.0 -1.0 11 16.9 SSE 17 24 9 13 1014.0 1011.5 0.0
29/07:00pm 33.8 29.2 -0.7 11 17.1 S 13 19 7 10 1013.7 1011.2 0.0
29/06:30pm 34.9 29.1 -1.2 10 17.9 S 19 28 10 15 1013.5 1011.0 0.0

Other Formats:

Comma delimited format used in spreadsheet applications
http://www.bom.gov.au/fwo/IDD60801/IDD60801.94462.axf

JavaScript Object Notation format (JSON) in row-major order
http://www.bom.gov.au/fwo/IDD60801/IDD60801.94462.json